Time;durP1;ratioP1;P1;durP2;ratioP2;P2;SDS_P1;SDS_P2;PMS_P1;PMS_P2;Temp;Humidity;BMP_temperature;BMP_pressure;BME280_temperature;BME280_humidity;BME280_pressure;Samples;Min_cycle;Max_cycle;Signal;HPM_P1;HPM_P2
2022/06/18 00:02:21;;;;;;;3.43;3.23;;;19.90;89.20;;;;;;6120451;23;21034;-76
2022/06/18 00:04:49;;;;;;;3.10;2.90;;;19.80;90.00;;;;;;6114726;23;20445;-76
2022/06/18 00:07:19;;;;;;;3.67;3.47;;;19.80;90.50;;;;;;6104881;23;20468;-76
2022/06/18 00:09:56;;;;;;;3.47;3.27;;;19.80;90.30;;;;;;6121313;23;20430;-76
2022/06/18 00:15:15;;;;;;;4.00;3.40;;;19.70;90.90;;;;;;6120336;23;20503;-76
2022/06/18 00:17:42;;;;;;;5.00;3.30;;;19.60;91.10;;;;;;6120960;23;20469;-75
2022/06/18 00:20:12;;;;;;;3.63;3.43;;;19.50;91.30;;;;;;6120584;23;20487;-76
2022/06/18 00:22:40;;;;;;;4.23;3.20;;;19.50;91.40;;;;;;6120812;23;20445;-76
2022/06/18 00:25:18;;;;;;;3.30;3.00;;;19.40;91.80;;;;;;6120529;23;20860;-75
2022/06/18 00:27:45;;;;;;;4.00;3.70;;;19.40;91.90;;;;;;6106304;23;20458;-76
2022/06/18 00:30:15;;;;;;;3.47;3.27;;;19.40;92.20;;;;;;6102276;23;20784;-76
2022/06/18 00:32:42;;;;;;;4.70;3.40;;;19.30;92.40;;;;;;6120474;23;20512;-76
2022/06/18 00:35:11;;;;;;;3.70;3.40;;;19.30;92.70;;;;;;6120009;23;20465;-75
2022/06/18 00:37:39;;;;;;;4.57;3.27;;;19.30;93.00;;;;;;6120154;23;20484;-76
2022/06/18 00:40:15;;;;;;;3.27;3.07;;;19.20;93.20;;;;;;6120361;23;21005;-75
2022/06/18 00:42:43;;;;;;;3.80;3.50;;;19.10;93.50;;;;;;6114697;23;20917;-76
2022/06/18 00:45:14;;;;;;;4.00;3.70;;;19.10;93.60;;;;;;6099879;23;20437;-76
2022/06/18 00:47:50;;;;;;;3.83;3.50;;;19.00;94.00;;;;;;6120900;23;20499;-76
2022/06/18 00:50:23;;;;;;;3.73;3.27;;;19.00;94.10;;;;;;6121038;23;20494;-76
2022/06/18 00:52:55;;;;;;;3.90;3.60;;;19.00;94.30;;;;;;6120339;23;20846;-75
2022/06/18 00:55:28;;;;;;;3.50;3.20;;;19.00;94.60;;;;;;6120346;23;20456;-75
2022/06/18 00:58:00;;;;;;;3.97;3.40;;;19.00;94.90;;;;;;6117485;23;20473;-75
2022/06/18 01:00:34;;;;;;;3.60;3.30;;;18.90;95.50;;;;;;6099909;23;20429;-76
2022/06/18 01:03:00;;;;;;;4.43;3.67;;;18.90;95.50;;;;;;6120290;23;20520;-76
2022/06/18 01:05:34;;;;;;;3.37;3.17;;;18.80;95.70;;;;;;6119959;23;20516;-75
2022/06/18 01:08:04;;;;;;;3.33;3.13;;;18.80;96.00;;;;;;6120350;23;20454;-76
2022/06/18 01:10:34;;;;;;;3.50;3.30;;;18.90;96.40;;;;;;6121096;23;20429;-76
2022/06/18 01:13:06;;;;;;;3.67;3.47;;;18.80;96.50;;;;;;6111575;23;20529;-76
2022/06/18 01:15:33;;;;;;;3.33;3.10;;;18.80;96.80;;;;;;6099253;23;20421;-76
2022/06/18 01:18:03;;;;;;;3.67;3.47;;;18.80;97.00;;;;;;6097761;23;21036;-75
2022/06/18 01:20:30;;;;;;;3.77;3.47;;;18.80;97.30;;;;;;6123608;23;20521;-75
2022/06/18 01:23:08;;;;;;;3.53;3.23;;;18.70;97.40;;;;;;6129169;23;20436;-75
2022/06/18 01:25:37;;;;;;;3.83;3.53;;;18.80;97.60;;;;;;6141302;23;20448;-75
2022/06/18 01:28:05;;;;;;;3.50;3.20;;;18.70;97.80;;;;;;6120144;23;20441;-75
2022/06/18 01:30:36;;;;;;;3.80;3.27;;;18.60;97.90;;;;;;6113896;23;20461;-75
2022/06/18 01:33:06;;;;;;;3.60;3.40;;;18.60;98.00;;;;;;6106752;23;20443;-75
2022/06/18 01:35:37;;;;;;;3.40;3.10;;;18.50;98.20;;;;;;6119616;23;20434;-75
2022/06/18 01:38:05;;;;;;;3.50;3.30;;;18.60;98.50;;;;;;6120405;23;20457;-75
2022/06/18 01:40:39;;;;;;;3.60;3.40;;;18.50;98.80;;;;;;6120553;23;20437;-76
2022/06/18 01:43:08;;;;;;;3.47;3.27;;;18.50;99.20;;;;;;6119780;23;20429;-75
2022/06/18 01:45:37;;;;;;;3.37;3.17;;;18.50;99.60;;;;;;6120063;23;20441;-75
2022/06/18 01:48:09;;;;;;;3.90;3.60;;;18.40;99.70;;;;;;6120794;23;20438;-75
2022/06/18 01:50:41;;;;;;;3.70;3.40;;;18.40;99.90;;;;;;6121024;23;20429;-75
2022/06/18 01:53:12;;;;;;;3.40;3.10;;;18.40;99.90;;;;;;6120088;23;20919;-75
2022/06/18 01:55:45;;;;;;;3.30;3.10;;;18.40;99.90;;;;;;6093648;23;20469;-75
2022/06/18 01:58:16;;;;;;;3.20;2.90;;;18.30;99.90;;;;;;6110818;23;20446;-76
2022/06/18 02:00:47;;;;;;;3.70;3.37;;;18.20;99.90;;;;;;6120431;23;20426;-75
2022/06/18 02:03:15;;;;;;;3.43;3.23;;;18.20;99.90;;;;;;6116377;23;20984;-76
2022/06/18 02:05:42;;;;;;;3.13;2.93;;;18.20;99.90;;;;;;6119984;23;20441;-75
2022/06/18 02:08:12;;;;;;;3.50;3.30;;;18.20;99.90;;;;;;6120120;23;20571;-75
2022/06/18 02:10:44;;;;;;;3.73;3.50;;;18.20;99.90;;;;;;6120348;23;20944;-75
2022/06/18 02:13:13;;;;;;;3.73;3.43;;;18.10;99.90;;;;;;6110028;23;20497;-76
2022/06/18 02:15:43;;;;;;;4.53;3.67;;;18.10;99.90;;;;;;6119663;23;20913;-75
2022/06/18 02:18:14;;;;;;;3.63;3.30;;;18.10;99.90;;;;;;6119796;23;20462;-75
2022/06/18 02:20:45;;;;;;;3.63;3.33;;;18.10;99.90;;;;;;6120783;23;20424;-76
2022/06/18 02:23:12;;;;;;;3.70;3.40;;;18.10;99.90;;;;;;6120227;23;20433;-75
2022/06/18 02:25:41;;;;;;;3.67;3.43;;;18.00;99.90;;;;;;6119407;23;20781;-75
2022/06/18 02:28:17;;;;;;;3.80;3.50;;;18.10;99.90;;;;;;6118425;23;20441;-75
2022/06/18 02:30:44;;;;;;;3.17;2.97;;;18.00;99.90;;;;;;6120740;23;20505;-75
2022/06/18 02:33:21;;;;;;;3.67;3.37;;;18.00;99.90;;;;;;6119311;23;20483;-75
2022/06/18 02:35:48;;;;;;;3.50;3.30;;;18.00;99.90;;;;;;6120141;23;20460;-75
2022/06/18 02:38:19;;;;;;;4.00;3.20;;;18.00;99.90;;;;;;6118815;23;20460;-76
2022/06/18 02:40:47;;;;;;;3.60;3.40;;;17.90;99.90;;;;;;6118428;23;20943;-75
2022/06/18 02:43:16;;;;;;;3.77;3.47;;;17.90;99.90;;;;;;6095922;23;20438;-75
2022/06/18 02:45:46;;;;;;;3.70;3.40;;;17.90;99.90;;;;;;6090473;23;20505;-75
2022/06/18 02:48:13;;;;;;;4.03;3.63;;;17.90;99.90;;;;;;6119698;23;20441;-75
2022/06/18 02:50:43;;;;;;;3.80;3.50;;;17.90;99.90;;;;;;6119918;23;20457;-75
2022/06/18 02:53:13;;;;;;;3.60;3.00;;;17.90;99.90;;;;;;6119668;23;20433;-75
2022/06/18 02:55:42;;;;;;;3.27;3.07;;;17.90;99.90;;;;;;6119974;23;20465;-75
2022/06/18 02:58:14;;;;;;;3.40;3.10;;;17.80;99.90;;;;;;6094346;23;20454;-75
2022/06/18 03:00:45;;;;;;;3.90;3.47;;;17.80;99.90;;;;;;6099710;23;20429;-75
2022/06/18 03:03:16;;;;;;;3.70;3.40;;;17.80;99.90;;;;;;6119630;23;20952;-76
2022/06/18 03:05:44;;;;;;;3.70;3.10;;;17.80;99.90;;;;;;6119721;23;20450;-75
2022/06/18 03:08:13;;;;;;;4.10;3.80;;;17.80;99.90;;;;;;6120765;23;20522;-75
2022/06/18 03:13:26;;;;;;;4.20;3.80;;;17.80;99.90;;;;;;6121470;23;20433;-75
2022/06/18 03:15:55;;;;;;;3.30;3.10;;;17.70;99.90;;;;;;6120883;23;20457;-75
2022/06/18 03:18:25;;;;;;;4.10;3.80;;;17.70;99.90;;;;;;6116569;23;20989;-75
2022/06/18 03:21:06;;;;;;;3.77;3.47;;;17.70;99.90;;;;;;6121348;23;20450;-75
2022/06/18 03:23:33;;;;;;;3.70;3.50;;;17.70;99.90;;;;;;6122114;23;20552;-75
2022/06/18 03:26:00;;;;;;;3.87;3.57;;;17.70;99.90;;;;;;6126314;23;20522;-75
2022/06/18 03:28:29;;;;;;;3.90;3.50;;;17.70;99.90;;;;;;6120783;23;20494;-75
2022/06/18 03:30:56;;;;;;;3.80;3.30;;;17.70;99.90;;;;;;6121142;23;20433;-75
2022/06/18 03:33:24;;;;;;;4.00;3.70;;;17.70;99.90;;;;;;6120995;23;20433;-75
2022/06/18 03:35:52;;;;;;;4.23;3.33;;;17.70;99.90;;;;;;6120041;23;21919;-75
2022/06/18 03:38:20;;;;;;;3.70;3.40;;;17.70;99.90;;;;;;6120830;23;20457;-75
2022/06/18 03:40:51;;;;;;;3.83;3.53;;;17.70;99.90;;;;;;6119097;23;20437;-75
2022/06/18 03:43:20;;;;;;;3.90;3.60;;;17.60;99.90;;;;;;6120721;23;20438;-75
2022/06/18 03:45:54;;;;;;;3.67;3.37;;;17.70;99.90;;;;;;6120266;23;20449;-75
2022/06/18 03:48:24;;;;;;;3.50;3.30;;;17.70;99.90;;;;;;6120404;23;20437;-75
2022/06/18 03:50:51;;;;;;;3.40;3.10;;;17.70;99.90;;;;;;6096510;23;20513;-75
2022/06/18 03:53:19;;;;;;;3.60;3.30;;;17.70;99.90;;;;;;6121125;23;20434;-75
2022/06/18 03:55:47;;;;;;;3.27;3.07;;;17.70;99.90;;;;;;6119493;23;20460;-75
2022/06/18 03:58:14;;;;;;;3.80;3.50;;;17.70;99.90;;;;;;6120804;23;20433;-75
2022/06/18 04:00:41;;;;;;;3.77;3.47;;;17.70;99.90;;;;;;6119752;23;20459;-75
2022/06/18 04:03:10;;;;;;;3.43;3.23;;;17.70;99.90;;;;;;6120653;23;20951;-75
2022/06/18 04:05:40;;;;;;;4.00;3.70;;;17.80;99.90;;;;;;6120712;23;20461;-75
2022/06/18 04:08:07;;;;;;;5.63;3.40;;;17.80;99.90;;;;;;6120842;23;20994;-75
2022/06/18 04:10:34;;;;;;;4.13;3.73;;;17.90;99.90;;;;;;6119709;23;20468;-75
2022/06/18 04:13:02;;;;;;;3.90;3.50;;;17.90;99.90;;;;;;6099861;23;20433;-75
2022/06/18 04:15:29;;;;;;;3.83;3.10;;;18.00;99.90;;;;;;6120014;23;21132;-76
2022/06/18 04:17:55;;;;;;;3.90;3.50;;;18.00;99.90;;;;;;6120322;23;20963;-75
2022/06/18 04:20:26;;;;;;;3.80;3.50;;;18.00;99.90;;;;;;6120707;23;20469;-75
2022/06/18 04:22:54;;;;;;;3.40;3.20;;;18.00;99.90;;;;;;6091465;23;20443;-76
2022/06/18 04:25:22;;;;;;;4.00;3.60;;;18.10;99.90;;;;;;6101997;23;20457;-75
2022/06/18 04:27:50;;;;;;;3.83;3.53;;;18.10;99.90;;;;;;6091418;23;20469;-75
2022/06/18 04:30:18;;;;;;;5.10;3.63;;;18.10;99.90;;;;;;6104488;23;20445;-75
2022/06/18 04:32:46;;;;;;;3.53;3.33;;;18.10;99.90;;;;;;6118595;23;20448;-75
2022/06/18 04:35:14;;;;;;;3.90;3.57;;;18.10;99.90;;;;;;6120718;23;20453;-75
2022/06/18 04:37:44;;;;;;;3.77;3.47;;;18.10;99.90;;;;;;6120631;23;20460;-75
2022/06/18 04:40:15;;;;;;;3.40;3.20;;;18.10;99.90;;;;;;6120466;23;20523;-75
2022/06/18 04:42:43;;;;;;;3.73;3.20;;;18.10;99.90;;;;;;6094999;23;20913;-75
2022/06/18 04:45:11;;;;;;;3.83;3.53;;;18.10;99.90;;;;;;6102196;23;20450;-75
2022/06/18 04:47:40;;;;;;;4.77;3.60;;;18.20;99.90;;;;;;6120722;23;20433;-75
2022/06/18 04:50:15;;;;;;;4.40;4.10;;;18.20;99.90;;;;;;6120693;23;20434;-75
2022/06/18 04:52:43;;;;;;;4.37;4.00;;;18.20;99.90;;;;;;6120427;23;20433;-75
2022/06/18 04:55:11;;;;;;;5.53;3.90;;;18.20;99.90;;;;;;6122382;23;20457;-74
2022/06/18 04:57:38;;;;;;;3.93;3.63;;;18.20;99.90;;;;;;6111916;23;20499;-75
2022/06/18 05:00:07;;;;;;;4.23;3.40;;;18.30;99.90;;;;;;6119316;23;21012;-75
2022/06/18 05:02:36;;;;;;;3.97;3.67;;;18.30;99.90;;;;;;6120215;23;20876;-76
2022/06/18 05:05:04;;;;;;;3.53;3.23;;;18.30;99.90;;;;;;6118055;23;20519;-74
2022/06/18 05:07:31;;;;;;;4.30;3.90;;;18.30;99.90;;;;;;6120572;23;20442;-75
2022/06/18 05:10:00;;;;;;;4.10;3.80;;;18.40;99.90;;;;;;6117869;23;20833;-75
2022/06/18 05:12:27;;;;;;;3.83;3.50;;;18.50;99.90;;;;;;6120854;23;20516;-76
2022/06/18 05:14:54;;;;;;;3.93;3.60;;;18.60;99.90;;;;;;6119050;23;20548;-76
2022/06/18 05:17:25;;;;;;;3.50;3.20;;;18.70;99.90;;;;;;6116172;23;20441;-75
2022/06/18 05:19:53;;;;;;;4.10;3.80;;;18.70;99.90;;;;;;6132554;23;20539;-75
2022/06/18 05:22:20;;;;;;;4.17;3.63;;;18.80;99.90;;;;;;6126819;23;20456;-74
2022/06/18 05:24:47;;;;;;;4.40;4.03;;;18.90;99.90;;;;;;6121881;23;20470;-75
2022/06/18 05:27:20;;;;;;;4.00;3.70;;;18.90;99.90;;;;;;6124868;23;20573;-75
2022/06/18 05:29:47;;;;;;;3.67;3.37;;;19.00;99.90;;;;;;6128875;23;20795;-74
2022/06/18 05:32:14;;;;;;;4.57;3.70;;;19.10;99.90;;;;;;6132035;23;20487;-75
2022/06/18 05:34:41;;;;;;;3.67;3.47;;;19.10;99.90;;;;;;6101224;23;20477;-75
2022/06/18 05:37:13;;;;;;;4.00;3.70;;;19.20;99.90;;;;;;6126285;23;20799;-76
2022/06/18 05:39:40;;;;;;;3.90;3.60;;;19.30;99.90;;;;;;6125163;23;20801;-74
2022/06/18 05:42:07;;;;;;;3.77;3.50;;;19.30;99.90;;;;;;6134049;23;20508;-79
2022/06/18 05:44:36;;;;;;;4.10;3.80;;;19.40;99.90;;;;;;6124389;23;20532;-76
2022/06/18 05:47:10;;;;;;;4.40;3.70;;;19.50;99.90;;;;;;6121641;23;20434;-76
2022/06/18 05:49:38;;;;;;;4.00;3.70;;;19.60;99.90;;;;;;6117246;23;20433;-76
2022/06/18 05:52:05;;;;;;;4.20;3.80;;;19.70;99.90;;;;;;6120057;23;20432;-74
2022/06/18 05:54:32;;;;;;;3.97;3.67;;;19.80;99.90;;;;;;6119630;23;20450;-77
2022/06/18 05:56:59;;;;;;;4.00;3.70;;;19.90;99.90;;;;;;6120662;23;20430;-77
2022/06/18 05:59:26;;;;;;;4.17;3.87;;;20.00;99.90;;;;;;6120334;23;20522;-77
2022/06/18 06:01:56;;;;;;;4.40;4.10;;;20.10;99.90;;;;;;6120240;23;20440;-74
2022/06/18 06:04:23;;;;;;;3.87;3.57;;;20.20;99.90;;;;;;6120153;23;20475;-74
2022/06/18 06:06:51;;;;;;;3.80;3.57;;;20.30;99.90;;;;;;6119671;23;20436;-76
2022/06/18 06:11:28;;;;;;;5.30;3.90;;;20.40;99.90;;;;;;6105990;23;20449;-75
2022/06/18 06:12:09;;;;;;;3.83;3.53;;;20.50;99.90;;;;;;6091025;23;20439;-74
2022/06/18 06:14:35;;;;;;;4.10;3.57;;;20.70;99.90;;;;;;6109715;23;20464;-77
2022/06/18 06:17:04;;;;;;;4.53;4.13;;;20.80;99.90;;;;;;6122876;23;20936;-77
2022/06/18 06:19:31;;;;;;;3.57;3.27;;;20.90;99.90;;;;;;6127491;23;20449;-76
2022/06/18 06:21:58;;;;;;;3.93;3.63;;;21.00;99.90;;;;;;6119587;23;20461;-73
2022/06/18 06:24:25;;;;;;;3.50;3.20;;;21.10;99.90;;;;;;6119031;23;20445;-74
2022/06/18 06:26:52;;;;;;;4.60;4.00;;;21.30;99.90;;;;;;6115580;23;20444;-74
2022/06/18 06:29:19;;;;;;;3.97;3.50;;;21.40;99.90;;;;;;6117103;23;20549;-72
2022/06/18 06:31:46;;;;;;;3.97;3.67;;;21.40;99.90;;;;;;6118061;23;20553;-73
2022/06/18 06:34:14;;;;;;;3.97;3.67;;;21.50;99.90;;;;;;6107007;23;20504;-75
2022/06/18 06:36:41;;;;;;;4.50;3.43;;;21.60;99.90;;;;;;6117687;23;20465;-73
2022/06/18 06:39:08;;;;;;;3.60;3.30;;;21.80;99.90;;;;;;6115348;23;20438;-73
2022/06/18 06:41:36;;;;;;;4.17;3.63;;;21.90;99.90;;;;;;6114569;23;20956;-73
2022/06/18 06:44:03;;;;;;;3.70;3.10;;;22.20;99.90;;;;;;6118578;23;21028;-73
2022/06/18 06:46:30;;;;;;;3.73;3.43;;;22.30;99.90;;;;;;6118878;23;20461;-73
2022/06/18 06:48:58;;;;;;;3.70;3.40;;;22.50;99.90;;;;;;6119015;23;20504;-73
2022/06/18 06:51:29;;;;;;;3.43;3.13;;;22.60;99.90;;;;;;6118752;23;20477;-75
2022/06/18 06:53:56;;;;;;;3.70;3.40;;;22.80;99.90;;;;;;6119658;23;20434;-74
2022/06/18 06:59:10;;;;;;;3.97;3.43;;;23.10;99.90;;;;;;6128985;23;20445;-73
2022/06/18 07:01:37;;;;;;;3.60;3.30;;;23.30;99.90;;;;;;6119001;23;20438;-73
2022/06/18 07:04:06;;;;;;;3.70;3.40;;;23.50;99.90;;;;;;6118298;23;20521;-75
2022/06/18 07:06:35;;;;;;;3.47;3.23;;;23.50;99.90;;;;;;6119183;23;20442;-74
2022/06/18 07:09:03;;;;;;;3.10;2.90;;;23.70;99.90;;;;;;6117299;23;20443;-73
2022/06/18 07:11:30;;;;;;;3.30;3.10;;;23.70;99.90;;;;;;6115756;23;20433;-78
2022/06/18 07:13:58;;;;;;;4.43;3.60;;;23.80;99.90;;;;;;6114912;23;20452;-76
2022/06/18 07:16:25;;;;;;;3.70;3.50;;;24.00;99.80;;;;;;6131055;23;20536;-75
2022/06/18 07:18:53;;;;;;;4.60;3.70;;;24.20;98.60;;;;;;6123276;23;20510;-75
2022/06/18 07:21:21;;;;;;;6.23;3.43;;;24.30;99.00;;;;;;6131546;23;20555;-76
2022/06/18 07:23:50;;;;;;;3.70;3.40;;;24.40;99.10;;;;;;6126188;23;20433;-77
2022/06/18 07:26:20;;;;;;;3.50;3.20;;;24.50;98.30;;;;;;6134488;23;20460;-77
2022/06/18 07:28:47;;;;;;;3.57;3.37;;;24.60;98.50;;;;;;6127270;23;20429;-75
2022/06/18 07:31:18;;;;;;;4.07;3.67;;;24.70;98.30;;;;;;6129111;23;20434;-75
2022/06/18 07:33:47;;;;;;;3.40;3.10;;;24.90;97.70;;;;;;6130664;23;20462;-82
2022/06/18 07:36:14;;;;;;;4.07;3.43;;;25.10;98.00;;;;;;6129926;23;20458;-82
2022/06/18 07:38:41;;;;;;;3.70;3.20;;;25.30;97.50;;;;;;6126539;23;20452;-83
2022/06/18 07:41:09;;;;;;;3.30;3.00;;;25.50;96.40;;;;;;6131838;23;20468;-77
2022/06/18 07:43:40;;;;;;;4.23;3.23;;;25.80;95.40;;;;;;6127215;23;20441;-88
2022/06/18 07:46:10;;;;;;;3.70;3.40;;;26.10;95.60;;;;;;6132044;23;20461;-78
2022/06/18 07:48:39;;;;;;;2.97;2.77;;;26.60;94.90;;;;;;6128859;23;20797;-82
2022/06/18 07:51:07;;;;;;;4.60;3.10;;;27.00;93.10;;;;;;6130944;23;20517;-78
2022/06/18 07:53:35;;;;;;;3.13;2.93;;;27.60;92.90;;;;;;6130373;23;20434;-77
2022/06/18 07:56:03;;;;;;;3.13;2.90;;;28.20;91.10;;;;;;6126182;23;20507;-78
2022/06/18 07:58:31;;;;;;;3.17;2.97;;;28.60;89.70;;;;;;6124612;23;20449;-79
2022/06/18 08:00:59;;;;;;;3.07;2.70;;;29.10;84.50;;;;;;6110779;23;20492;-78
2022/06/18 08:03:27;;;;;;;3.13;2.87;;;29.80;79.50;;;;;;6126864;23;20502;-78
2022/06/18 08:05:55;;;;;;;3.17;2.90;;;30.20;78.70;;;;;;6125674;23;20983;-79
2022/06/18 08:08:22;;;;;;;3.00;2.80;;;30.70;78.00;;;;;;6112932;23;20452;-79
2022/06/18 08:10:53;;;;;;;2.67;2.47;;;31.20;74.90;;;;;;6129667;23;20433;-77
2022/06/18 08:13:21;;;;;;;2.90;2.70;;;31.50;66.90;;;;;;6124373;23;20475;-77
2022/06/18 08:15:49;;;;;;;3.07;2.77;;;31.70;65.80;;;;;;6124818;23;20544;-77
2022/06/18 08:18:17;;;;;;;5.23;2.53;;;32.00;65.10;;;;;;6110499;23;20449;-78
2022/06/18 08:20:44;;;;;;;3.00;2.77;;;32.20;65.20;;;;;;6113537;23;20959;-78
2022/06/18 08:23:12;;;;;;;3.20;2.57;;;32.50;64.20;;;;;;6111627;23;20445;-78
2022/06/18 08:25:42;;;;;;;2.60;2.40;;;33.00;62.50;;;;;;6104781;23;20708;-77
2022/06/18 08:28:11;;;;;;;3.10;2.80;;;33.50;59.60;;;;;;6118855;23;20448;-77
2022/06/18 08:30:40;;;;;;;3.23;2.70;;;34.00;59.30;;;;;;6120477;23;20438;-77
2022/06/18 08:33:09;;;;;;;2.80;2.50;;;34.40;58.20;;;;;;6110046;23;20540;-77
2022/06/18 08:35:37;;;;;;;2.80;2.60;;;34.20;57.00;;;;;;6092778;23;20454;-77
2022/06/18 08:38:06;;;;;;;2.97;2.63;;;34.40;55.80;;;;;;6104459;23;20794;-77
2022/06/18 08:40:46;;;;;;;2.97;2.77;;;34.50;56.80;;;;;;6114821;23;20475;-77
2022/06/18 08:43:30;;;;;;;3.17;2.10;;;34.70;55.30;;;;;;6116862;23;20448;-77
2022/06/18 08:46:07;;;;;;;2.57;2.37;;;34.90;54.20;;;;;;6118627;23;20474;-77
2022/06/18 08:49:01;;;;;;;2.43;2.23;;;34.70;53.10;;;;;;6121402;23;20821;-77
2022/06/18 08:51:39;;;;;;;2.43;2.23;;;34.50;51.70;;;;;;6114426;23;20547;-77
2022/06/18 08:54:26;;;;;;;2.70;2.50;;;34.50;52.20;;;;;;6109826;23;20465;-77
2022/06/18 08:57:00;;;;;;;2.77;2.57;;;34.20;52.50;;;;;;6115922;23;20967;-77
2022/06/18 08:59:42;;;;;;;2.30;2.10;;;34.70;53.20;;;;;;6117320;23;20438;-77
2022/06/18 09:02:23;;;;;;;2.47;2.27;;;34.80;51.80;;;;;;6116745;23;20525;-77
2022/06/18 09:05:03;;;;;;;2.10;2.00;;;35.10;51.10;;;;;;6120083;23;20461;-77
2022/06/18 09:08:15;;;;;;;2.50;2.30;;;35.20;50.10;;;;;;6119082;23;20445;-77
2022/06/18 09:10:55;;;;;;;2.10;1.90;;;35.40;48.80;;;;;;6027046;23;20434;-77
2022/06/18 09:13:27;;;;;;;2.27;2.07;;;35.60;47.20;;;;;;6118313;23;20520;-78
2022/06/18 09:15:59;;;;;;;3.13;2.93;;;35.60;46.80;;;;;;6111476;23;20438;-79
2022/06/18 09:18:34;;;;;;;2.40;2.20;;;35.20;46.70;;;;;;6117828;23;20513;-79
2022/06/18 09:21:05;;;;;;;2.43;2.23;;;35.40;47.90;;;;;;6118717;23;20485;-79
2022/06/18 09:23:37;;;;;;;2.30;2.20;;;35.90;48.10;;;;;;6117738;23;20508;-80
2022/06/18 09:26:12;;;;;;;2.10;2.00;;;36.40;45.50;;;;;;6111987;23;20461;-78
2022/06/18 09:28:45;;;;;;;1.70;1.60;;;36.60;43.70;;;;;;6121342;23;20432;-78
2022/06/18 09:31:16;;;;;;;2.00;1.90;;;36.50;43.10;;;;;;6128378;23;20429;-78
2022/06/18 09:33:50;;;;;;;2.00;1.90;;;36.40;44.30;;;;;;6124165;23;20449;-78
2022/06/18 09:36:21;;;;;;;2.20;1.77;;;36.70;44.80;;;;;;6124073;23;20473;-78
2022/06/18 09:38:52;;;;;;;1.90;1.80;;;36.90;42.50;;;;;;6102832;23;20450;-78
2022/06/18 09:41:23;;;;;;;1.67;1.50;;;37.10;42.30;;;;;;6112518;23;20808;-77
2022/06/18 09:43:58;;;;;;;1.80;1.70;;;37.10;41.20;;;;;;6115049;23;20464;-77
2022/06/18 09:46:27;;;;;;;1.60;1.50;;;37.10;41.30;;;;;;6116611;23;20437;-76
2022/06/18 09:48:54;;;;;;;1.67;1.57;;;36.90;41.40;;;;;;6117169;23;20506;-77
2022/06/18 09:51:29;;;;;;;2.03;1.83;;;37.20;40.60;;;;;;6109463;23;20445;-77
2022/06/18 09:54:03;;;;;;;1.87;1.77;;;37.40;42.20;;;;;;6113172;23;20540;-78
2022/06/18 09:56:35;;;;;;;2.00;1.90;;;37.60;42.30;;;;;;6115716;23;20499;-78
2022/06/18 09:59:08;;;;;;;2.70;1.90;;;38.10;41.60;;;;;;6110183;23;20960;-78
2022/06/18 10:01:40;;;;;;;1.63;1.50;;;38.20;40.10;;;;;;6114595;23;20890;-78
2022/06/18 10:06:57;;;;;;;1.73;1.30;;;37.90;39.50;;;;;;6119957;23;20533;-78
2022/06/18 10:09:31;;;;;;;1.30;1.20;;;38.50;37.20;;;;;;6120014;23;20449;-78
2022/06/18 10:11:58;;;;;;;1.93;1.33;;;37.90;37.50;;;;;;6119151;23;20441;-78
2022/06/18 10:14:26;;;;;;;2.20;1.30;;;37.70;37.50;;;;;;6120275;23;21298;-78
2022/06/18 10:17:04;;;;;;;1.57;1.10;;;37.70;36.90;;;;;;6119497;23;20440;-78
2022/06/18 10:19:40;;;;;;;1.50;1.40;;;37.90;36.00;;;;;;6120575;23;20428;-78
2022/06/18 10:22:19;;;;;;;3.03;1.80;;;38.00;36.30;;;;;;6118966;23;20548;-78
2022/06/18 10:24:56;;;;;;;1.53;1.43;;;38.10;38.30;;;;;;6119231;23;20566;-78
2022/06/18 10:27:34;;;;;;;2.50;1.80;;;38.40;38.10;;;;;;6091509;23;20426;-78
2022/06/18 10:30:06;;;;;;;1.60;1.50;;;38.80;38.50;;;;;;6114436;23;20567;-78
2022/06/18 10:32:44;;;;;;;1.80;1.70;;;39.30;38.50;;;;;;6119556;23;20526;-78
2022/06/18 10:35:34;;;;;;;2.67;1.70;;;39.10;37.20;;;;;;6118820;23;20536;-78
2022/06/18 10:38:18;;;;;;;1.40;1.30;;;38.90;37.60;;;;;;6118776;23;20472;-78
2022/06/18 10:40:53;;;;;;;1.77;1.67;;;38.50;36.90;;;;;;6114818;23;20458;-78
2022/06/18 10:43:42;;;;;;;1.97;1.50;;;38.10;36.90;;;;;;6119330;23;20494;-78
2022/06/18 10:46:12;;;;;;;1.50;1.40;;;38.40;37.50;;;;;;6119565;23;20782;-78
2022/06/18 10:48:46;;;;;;;3.37;1.40;;;38.40;37.10;;;;;;6120104;23;20440;-78
2022/06/18 10:51:17;;;;;;;1.57;1.47;;;38.10;35.70;;;;;;6119758;23;20437;-78
2022/06/18 10:53:49;;;;;;;2.23;1.70;;;37.70;36.80;;;;;;6105406;23;20860;-78
2022/06/18 10:56:19;;;;;;;1.50;1.40;;;37.40;38.00;;;;;;6119003;23;20787;-78
2022/06/18 10:58:50;;;;;;;1.40;1.30;;;37.50;37.50;;;;;;6120069;23;20809;-78
2022/06/18 11:01:25;;;;;;;1.67;1.27;;;37.50;36.10;;;;;;6119124;23;20796;-78
2022/06/18 11:03:58;;;;;;;1.73;1.20;;;37.40;36.50;;;;;;6119121;23;20464;-78
2022/06/18 11:06:27;;;;;;;2.57;1.60;;;37.30;36.80;;;;;;6119492;23;20430;-78
2022/06/18 11:08:58;;;;;;;2.40;1.80;;;37.40;36.80;;;;;;6103156;23;20438;-78
2022/06/18 11:11:28;;;;;;;1.50;1.40;;;37.90;36.90;;;;;;6101492;23;20446;-78
2022/06/18 11:13:55;;;;;;;1.57;1.47;;;38.00;37.10;;;;;;6116404;23;20465;-78
2022/06/18 11:16:24;;;;;;;1.90;1.80;;;38.00;36.60;;;;;;6119712;23;20440;-78
2022/06/18 11:18:54;;;;;;;2.37;1.60;;;37.90;37.80;;;;;;6119754;23;20434;-78
2022/06/18 11:21:32;;;;;;;2.50;1.80;;;38.10;38.00;;;;;;6119278;23;20453;-78
2022/06/18 11:24:04;;;;;;;2.60;1.50;;;38.50;38.60;;;;;;6103259;23;20462;-78
2022/06/18 11:26:32;;;;;;;1.97;1.70;;;38.50;36.60;;;;;;6113544;23;20529;-78
2022/06/18 11:29:07;;;;;;;2.77;1.30;;;38.10;35.40;;;;;;6120802;23;20482;-78
2022/06/18 11:31:36;;;;;;;2.20;1.40;;;38.00;35.30;;;;;;6120698;23;20447;-78
2022/06/18 11:34:06;;;;;;;3.47;1.53;;;38.10;34.20;;;;;;6119987;23;20846;-78
2022/06/18 11:36:38;;;;;;;4.10;1.50;;;38.40;34.50;;;;;;6120875;23;20495;-78
2022/06/18 11:39:18;;;;;;;1.43;1.30;;;38.40;33.80;;;;;;6119577;23;20510;-78
2022/06/18 11:41:48;;;;;;;2.67;1.57;;;38.20;34.70;;;;;;6099704;23;20581;-78
2022/06/18 11:44:21;;;;;;;2.73;1.50;;;37.90;36.10;;;;;;6109588;23;20453;-78
2022/06/18 11:46:54;;;;;;;2.20;1.57;;;37.90;36.30;;;;;;6121379;23;20513;-78
2022/06/18 11:49:28;;;;;;;3.00;1.53;;;37.60;36.00;;;;;;6121142;23;20429;-78
2022/06/18 11:52:08;;;;;;;2.27;1.63;;;37.90;35.80;;;;;;6117416;23;20446;-79
2022/06/18 11:54:42;;;;;;;2.23;1.70;;;38.00;35.30;;;;;;6120514;23;20514;-78
2022/06/18 11:57:17;;;;;;;2.50;1.47;;;38.30;35.00;;;;;;6121204;23;20476;-78
2022/06/18 11:59:52;;;;;;;1.50;1.40;;;38.60;35.40;;;;;;6120908;23;20447;-79
2022/06/18 12:02:25;;;;;;;3.23;2.00;;;38.60;35.50;;;;;;6120960;23;20476;-79
2022/06/18 12:04:57;;;;;;;1.90;1.70;;;38.90;34.80;;;;;;6120820;23;20461;-78
2022/06/18 12:07:35;;;;;;;1.60;1.50;;;39.20;34.00;;;;;;6118209;23;20433;-79
2022/06/18 12:10:05;;;;;;;2.47;1.73;;;38.90;35.30;;;;;;6119524;23;20429;-78
2022/06/18 12:12:46;;;;;;;2.20;1.60;;;38.60;35.80;;;;;;6120947;23;20951;-79
2022/06/18 12:15:21;;;;;;;3.40;2.00;;;38.60;34.10;;;;;;6120259;23;20475;-79
2022/06/18 12:17:53;;;;;;;2.40;1.87;;;38.20;35.80;;;;;;6121185;23;20433;-79
2022/06/18 12:20:53;;;;;;;2.33;1.63;;;38.40;35.60;;;;;;6119914;23;20444;-79
2022/06/18 12:23:31;;;;;;;4.23;2.10;;;38.50;36.90;;;;;;6119189;23;20501;-79
2022/06/18 12:26:04;;;;;;;3.30;2.03;;;38.80;35.60;;;;;;6120497;23;20769;-79
2022/06/18 12:28:43;;;;;;;3.20;2.00;;;39.10;35.00;;;;;;6120844;23;20499;-79
2022/06/18 12:31:13;;;;;;;3.80;2.37;;;39.20;35.60;;;;;;6119493;23;20441;-79
2022/06/18 12:33:50;;;;;;;6.07;2.60;;;38.80;35.50;;;;;;6120624;23;20994;-79
2022/06/18 12:36:23;;;;;;;3.63;2.00;;;38.70;36.60;;;;;;6118329;23;20455;-78
2022/06/18 12:39:00;;;;;;;5.43;1.90;;;38.20;36.00;;;;;;6100238;23;20796;-79
2022/06/18 12:41:40;;;;;;;3.20;1.93;;;38.00;36.60;;;;;;6119571;23;20449;-79
2022/06/18 12:44:27;;;;;;;3.40;2.00;;;38.00;37.50;;;;;;6120675;23;20461;-79
2022/06/18 12:47:01;;;;;;;5.57;2.43;;;38.40;36.50;;;;;;6120478;23;20437;-79
2022/06/18 12:49:35;;;;;;;5.20;2.37;;;38.90;37.60;;;;;;6120777;23;20477;-79
2022/06/18 12:52:11;;;;;;;5.10;2.20;;;39.20;37.50;;;;;;6113743;23;21167;-79
2022/06/18 12:54:53;;;;;;;6.57;2.50;;;39.40;36.60;;;;;;6120746;23;20457;-79
2022/06/18 12:57:29;;;;;;;3.60;2.30;;;40.10;35.90;;;;;;6119350;23;20474;-79
2022/06/18 13:00:05;;;;;;;4.60;2.17;;;40.40;36.40;;;;;;6120388;23;20962;-79
2022/06/18 13:02:52;;;;;;;6.57;2.50;;;40.80;36.70;;;;;;6091537;23;20998;-79
2022/06/18 13:05:37;;;;;;;4.80;2.57;;;41.40;35.70;;;;;;6098323;23;20533;-79
2022/06/18 13:08:15;;;;;;;6.10;2.70;;;41.50;35.20;;;;;;6091853;23;20423;-79
2022/06/18 13:10:50;;;;;;;6.00;2.50;;;41.40;35.20;;;;;;6112518;23;20441;-79
2022/06/18 13:13:32;;;;;;;8.70;3.13;;;41.80;34.00;;;;;;6120931;23;20457;-79
2022/06/18 13:16:08;;;;;;;6.17;2.80;;;43.80;33.20;;;;;;6120109;23;20845;-79
2022/06/18 13:18:40;;;;;;;6.57;3.00;;;43.90;32.70;;;;;;6093559;23;20448;-79
2022/06/18 13:21:09;;;;;;;8.33;3.30;;;42.90;32.80;;;;;;6119363;23;20516;-78